Time;durP1;ratioP1;P1;durP2;ratioP2;P2;SDS_P1;SDS_P2;PMS_P1;PMS_P2;Temp;Humidity;BMP_temperature;BMP_pressure;BME280_temperature;BME280_humidity;BME280_pressure;Samples;Min_cycle;Max_cycle;Signal;HPM_P1;HPM_P2
2023/03/07 00:02:07;;;;;;;1999.90;999.90;;;;;;;5.10;100.00;96743.97;5098111;28;20578;-81
2023/03/07 00:04:32;;;;;;;1999.90;999.90;;;;;;;5.13;100.00;96748.81;5095757;28;20032;-83
2023/03/07 00:06:58;;;;;;;1999.90;999.90;;;;;;;5.23;100.00;96748.66;5095746;28;20016;-85
2023/03/07 00:09:23;;;;;;;1999.90;999.90;;;;;;;5.10;100.00;96749.38;5096127;28;20103;-82
2023/03/07 00:11:49;;;;;;;1999.90;999.90;;;;;;;5.14;100.00;96750.41;5097573;28;20503;-85
2023/03/07 00:14:14;;;;;;;1999.90;999.90;;;;;;;5.19;100.00;96752.25;5098127;28;20110;-87
2023/03/07 00:16:40;;;;;;;1999.90;999.90;;;;;;;5.14;100.00;96755.81;5099131;28;20075;-84
2023/03/07 00:19:06;;;;;;;1999.90;999.90;;;;;;;5.20;100.00;96746.53;5099682;28;20032;-84
2023/03/07 00:21:32;;;;;;;1999.90;999.90;;;;;;;5.18;100.00;96762.28;5101597;28;20115;-87
2023/03/07 00:23:58;;;;;;;1999.90;999.90;;;;;;;5.25;100.00;96762.75;5101402;28;20472;-86
2023/03/07 00:26:24;;;;;;;1999.90;999.90;;;;;;;5.23;100.00;96759.50;5102737;28;20027;-84
2023/03/07 00:28:52;;;;;;;1999.90;999.90;;;;;;;5.25;100.00;96765.44;5101238;28;20021;-86
2023/03/07 00:31:18;;;;;;;1999.90;999.90;;;;;;;5.16;100.00;96764.47;5097149;28;20020;-88
2023/03/07 00:33:44;;;;;;;1999.90;999.90;;;;;;;4.96;100.00;96756.59;5085088;28;20025;-83
2023/03/07 00:36:12;;;;;;;1999.90;999.90;;;;;;;4.97;100.00;96785.31;5080273;28;20044;-84
2023/03/07 00:38:38;;;;;;;1999.90;999.90;;;;;;;4.92;100.00;96774.50;5080663;28;20032;-82
2023/03/07 00:41:10;;;;;;;1999.90;999.90;;;;;;;4.96;100.00;96745.75;5079198;28;20074;-84
2023/03/07 00:43:36;;;;;;;1999.90;999.90;;;;;;;5.03;100.00;96750.81;5079033;28;20029;-83
2023/03/07 00:46:02;;;;;;;1999.90;999.90;;;;;;;4.96;100.00;96747.66;5077941;28;20473;-86
2023/03/07 00:48:29;;;;;;;1999.90;999.90;;;;;;;4.95;100.00;96763.09;5079005;28;20088;-81
2023/03/07 00:50:55;;;;;;;1999.90;999.90;;;;;;;4.94;100.00;96760.69;5079708;28;20016;-83
2023/03/07 00:53:21;;;;;;;1999.90;999.90;;;;;;;4.97;100.00;96760.09;5079025;28;20051;-85
2023/03/07 00:55:54;;;;;;;1999.90;999.90;;;;;;;5.03;100.00;96764.38;5076446;28;20024;-82
2023/03/07 00:58:19;;;;;;;1999.90;999.90;;;;;;;5.03;100.00;96759.75;5078897;28;20567;-83
2023/03/07 01:00:45;;;;;;;1999.90;999.90;;;;;;;5.00;100.00;96759.53;5078369;28;20021;-86
2023/03/07 01:03:10;;;;;;;1999.90;999.90;;;;;;;5.10;100.00;96754.81;5077171;28;20009;-84
2023/03/07 01:05:39;;;;;;;1999.90;999.90;;;;;;;5.13;100.00;96756.94;5078213;28;20028;-87
2023/03/07 01:08:04;;;;;;;1999.90;999.90;;;;;;;5.09;100.00;96742.34;5078264;28;20465;-85
2023/03/07 01:10:32;;;;;;;1999.90;999.90;;;;;;;5.01;100.00;96729.41;5077791;28;20060;-83
2023/03/07 01:12:58;;;;;;;1999.90;999.90;;;;;;;5.02;100.00;96731.03;5077627;28;20024;-82
2023/03/07 01:15:23;;;;;;;1999.90;999.90;;;;;;;5.01;100.00;96726.72;5077304;28;20028;-83
2023/03/07 01:17:48;;;;;;;1999.90;999.90;;;;;;;5.03;100.00;96729.94;5077773;28;20024;-85
2023/03/07 01:20:14;;;;;;;1999.90;999.90;;;;;;;5.05;100.00;96725.03;5077835;28;20040;-84
2023/03/07 01:22:39;;;;;;;1999.90;999.90;;;;;;;5.07;100.00;96730.19;5075989;28;20107;-85
2023/03/07 01:25:05;;;;;;;1999.90;999.90;;;;;;;5.06;100.00;96732.09;5076893;28;20154;-84
2023/03/07 01:27:30;;;;;;;1999.90;999.90;;;;;;;5.10;100.00;96738.53;5079692;28;20036;-82
2023/03/07 01:29:55;;;;;;;1999.90;999.90;;;;;;;5.12;100.00;96738.25;5078208;28;20054;-83
2023/03/07 01:32:21;;;;;;;1999.90;999.90;;;;;;;5.14;100.00;96736.84;5079407;28;20039;-85
2023/03/07 01:34:46;;;;;;;1999.90;999.90;;;;;;;5.20;100.00;96743.03;5079742;28;20033;-86
2023/03/07 01:37:11;;;;;;;1999.90;999.90;;;;;;;5.23;100.00;96742.44;5079519;28;20032;-85
2023/03/07 01:39:37;;;;;;;1999.90;999.90;;;;;;;5.22;100.00;96741.63;5079703;28;20029;-82
2023/03/07 01:42:02;;;;;;;1999.90;999.90;;;;;;;5.17;100.00;96741.69;5079681;28;20373;-83
2023/03/07 01:44:28;;;;;;;1999.90;999.90;;;;;;;5.18;100.00;96745.19;5080814;28;20031;-83
2023/03/07 01:46:56;;;;;;;1999.90;999.90;;;;;;;5.22;100.00;96747.06;5083319;28;20028;-85
2023/03/07 01:49:36;;;;;;;1999.90;999.90;;;;;;;5.19;100.00;96741.41;5079930;28;20052;-86
2023/03/07 01:52:19;;;;;;;1999.90;999.90;;;;;;;5.18;100.00;96737.88;5073399;28;20132;-86
2023/03/07 01:54:49;;;;;;;1999.90;999.90;;;;;;;5.08;100.00;96734.47;5075500;28;20028;-82
2023/03/07 01:57:21;;;;;;;1999.90;999.90;;;;;;;5.03;100.00;96732.66;5076652;28;20024;-83
2023/03/07 01:59:53;;;;;;;1999.90;999.90;;;;;;;4.96;100.00;96740.31;5074895;28;20056;-76
2023/03/07 02:02:21;;;;;;;1999.90;999.90;;;;;;;5.05;100.00;96719.63;5073021;28;20428;-77
2023/03/07 02:04:53;;;;;;;1999.90;999.90;;;;;;;5.10;100.00;96724.19;5072931;28;20074;-76
2023/03/07 02:07:22;;;;;;;1999.90;999.90;;;;;;;5.04;100.00;96709.91;5072989;28;20028;-79
2023/03/07 02:09:51;;;;;;;1999.90;999.90;;;;;;;5.10;100.00;96716.88;5072813;28;20072;-78
2023/03/07 02:12:17;;;;;;;1999.90;999.90;;;;;;;5.11;100.00;96707.63;5071471;28;20020;-79
2023/03/07 02:14:44;;;;;;;1999.90;999.90;;;;;;;5.02;100.00;96703.13;5073253;28;20025;-76
2023/03/07 02:17:10;;;;;;;1999.90;999.90;;;;;;;4.94;100.00;96701.88;5071861;28;20024;-75
2023/03/07 02:19:47;;;;;;;1999.90;999.90;;;;;;;4.93;100.00;96702.97;5072547;28;20034;-77
2023/03/07 02:22:16;;;;;;;1999.90;999.90;;;;;;;4.88;100.00;96703.06;5072678;28;20071;-78
2023/03/07 02:24:53;;;;;;;1999.90;999.90;;;;;;;4.87;100.00;96696.00;5072269;28;20078;-78
2023/03/07 02:27:19;;;;;;;1999.90;999.90;;;;;;;4.92;100.00;96695.94;5072677;28;20020;-77
2023/03/07 02:29:44;;;;;;;1999.90;999.90;;;;;;;4.88;100.00;96703.06;5073405;28;20078;-75
2023/03/07 02:32:10;;;;;;;1999.90;999.90;;;;;;;4.95;100.00;96708.13;5072210;28;20035;-76
2023/03/07 02:34:35;;;;;;;1999.90;999.90;;;;;;;4.94;100.00;96706.50;5072275;28;20021;-75
2023/03/07 02:37:06;;;;;;;1999.90;999.90;;;;;;;4.96;100.00;96707.81;5074971;28;20031;-83
2023/03/07 02:39:32;;;;;;;1999.90;999.90;;;;;;;5.03;100.00;96708.28;5093169;28;20028;-76
2023/03/07 02:42:03;;;;;;;1999.90;999.90;;;;;;;5.07;100.00;96714.75;5093003;28;20069;-75
2023/03/07 02:44:28;;;;;;;1999.90;999.90;;;;;;;5.06;100.00;96698.75;5100574;28;20035;-79
2023/03/07 02:46:53;;;;;;;1999.90;999.90;;;;;;;5.06;100.00;96704.97;5104922;28;20386;-78
2023/03/07 02:49:19;;;;;;;1999.90;999.90;;;;;;;5.04;100.00;96711.78;5113433;28;20031;-78
2023/03/07 02:51:44;;;;;;;1999.90;999.90;;;;;;;4.92;100.00;96704.06;5115194;28;20511;-77
2023/03/07 02:54:10;;;;;;;1999.90;999.90;;;;;;;4.85;100.00;96698.22;5111869;28;20380;-79
2023/03/07 02:56:35;;;;;;;1999.90;999.90;;;;;;;4.99;100.00;96704.53;5112924;28;20027;-77
2023/03/07 02:59:01;;;;;;;1999.90;999.90;;;;;;;4.90;100.00;96695.44;5112617;28;20028;-79
2023/03/07 03:01:26;;;;;;;1999.90;999.90;;;;;;;4.89;100.00;96703.88;5112158;28;20106;-76
2023/03/07 03:03:52;;;;;;;1999.90;999.90;;;;;;;4.95;100.00;96697.28;5112109;28;20043;-77
2023/03/07 03:06:17;;;;;;;1999.90;999.90;;;;;;;4.91;100.00;96696.25;5112394;28;20429;-76
2023/03/07 03:08:43;;;;;;;1999.90;999.90;;;;;;;4.93;100.00;96691.34;5112653;27;20019;-77
2023/03/07 03:11:08;;;;;;;1999.90;999.90;;;;;;;5.04;100.00;96709.91;5112365;28;20020;-77
2023/03/07 03:13:33;;;;;;;1999.90;999.90;;;;;;;5.04;100.00;96704.47;5111382;28;20023;-76
2023/03/07 03:15:59;;;;;;;1999.90;999.90;;;;;;;5.00;100.00;96695.31;5112718;28;20060;-80
2023/03/07 03:18:28;;;;;;;1999.90;999.90;;;;;;;5.12;100.00;96701.09;5112650;28;20041;-77
2023/03/07 03:20:53;;;;;;;1999.90;999.90;;;;;;;5.02;100.00;96692.28;5112125;28;20049;-80
2023/03/07 03:23:19;;;;;;;1999.90;999.90;;;;;;;5.06;100.00;96698.75;5111839;28;20498;-76
2023/03/07 03:25:44;;;;;;;1999.90;999.90;;;;;;;5.06;100.00;96704.19;5112364;28;20118;-77
2023/03/07 03:28:12;;;;;;;1999.90;999.90;;;;;;;5.07;100.00;96700.38;5112281;28;20028;-77
2023/03/07 03:30:37;;;;;;;1999.90;999.90;;;;;;;5.03;100.00;96707.47;5111889;28;20103;-77
2023/03/07 03:33:03;;;;;;;1999.90;999.90;;;;;;;5.03;100.00;96699.34;5112118;28;20102;-78
2023/03/07 03:35:28;;;;;;;1999.90;999.90;;;;;;;4.97;100.00;96698.59;5111550;28;20054;-78
2023/03/07 03:37:54;;;;;;;1999.90;999.90;;;;;;;5.03;100.00;96702.84;5111736;28;20023;-78
2023/03/07 03:40:20;;;;;;;1999.90;999.90;;;;;;;5.04;100.00;96704.47;5110628;28;20529;-78
2023/03/07 03:42:46;;;;;;;1999.90;999.90;;;;;;;4.94;100.00;96695.66;5111837;28;20020;-77
2023/03/07 03:45:13;;;;;;;1999.90;999.90;;;;;;;5.05;100.00;96707.97;5111517;28;20490;-77
2023/03/07 03:47:39;;;;;;;1999.90;999.90;;;;;;;5.02;100.00;96703.94;5112220;28;20479;-76
2023/03/07 03:50:05;;;;;;;1999.90;999.90;;;;;;;5.04;100.00;96707.19;5111076;28;20031;-79
2023/03/07 03:52:31;;;;;;;1999.90;999.90;;;;;;;5.02;100.00;96709.38;5112278;28;20031;-76
2023/03/07 03:54:56;;;;;;;1999.90;999.90;;;;;;;4.98;100.00;96697.47;5116639;28;20016;-77
2023/03/07 03:57:22;;;;;;;1999.90;999.90;;;;;;;5.02;100.00;96709.38;5113277;28;20027;-76
2023/03/07 03:59:48;;;;;;;1999.90;999.90;;;;;;;4.90;100.00;96706.28;5110444;28;20043;-76
2023/03/07 04:02:13;;;;;;;1999.90;999.90;;;;;;;4.95;100.00;96705.41;5112798;28;20494;-79
2023/03/07 04:04:39;;;;;;;1999.90;999.90;;;;;;;4.97;100.00;96705.91;5114787;28;20122;-78
2023/03/07 04:07:04;;;;;;;1999.90;999.90;;;;;;;5.02;100.00;96706.66;5114426;28;20076;-77
2023/03/07 04:09:30;;;;;;;1999.90;999.90;;;;;;;4.99;100.00;96709.94;5111455;28;20075;-77
2023/03/07 04:11:56;;;;;;;1999.90;999.90;;;;;;;5.04;100.00;96701.78;5111404;28;20020;-76
2023/03/07 04:14:22;;;;;;;1999.90;999.90;;;;;;;4.97;100.00;96704.03;5111488;28;20452;-83
2023/03/07 04:16:47;;;;;;;1999.90;999.90;;;;;;;4.95;100.00;96702.72;5111197;28;20432;-77
2023/03/07 04:19:13;;;;;;;1999.90;999.90;;;;;;;5.01;100.00;96702.31;5111469;28;20026;-78
2023/03/07 04:21:39;;;;;;;1999.90;999.90;;;;;;;4.99;100.00;96714.56;5110923;28;20399;-77
2023/03/07 04:24:07;;;;;;;1999.90;999.90;;;;;;;4.98;100.00;96707.53;5111113;28;20472;-77
2023/03/07 04:26:33;;;;;;;1999.90;999.90;;;;;;;4.92;100.00;96701.34;5111090;28;20499;-76
2023/03/07 04:28:58;;;;;;;1999.90;999.90;;;;;;;4.80;100.00;96703.69;5110830;28;20031;-78
2023/03/07 04:31:26;;;;;;;1999.90;999.90;;;;;;;4.90;100.00;96716.28;5111198;28;20086;-76
2023/03/07 04:33:54;;;;;;;1999.90;999.90;;;;;;;4.84;100.00;96721.78;5110541;28;20072;-78
2023/03/07 04:36:20;;;;;;;1999.90;999.90;;;;;;;4.81;100.00;96719.66;5109681;28;20035;-77
2023/03/07 04:38:47;;;;;;;1999.90;999.90;;;;;;;4.87;100.00;96717.69;5110090;28;20028;-75
2023/03/07 04:41:21;;;;;;;1999.90;999.90;;;;;;;4.96;100.00;96715.13;5110812;28;20028;-74
2023/03/07 04:43:47;;;;;;;1999.90;999.90;;;;;;;4.94;100.00;96712.72;5110244;28;20047;-76
2023/03/07 04:46:14;;;;;;;1999.90;999.90;;;;;;;4.96;100.00;96713.25;5110488;28;20396;-74
2023/03/07 04:48:40;;;;;;;1999.90;999.90;;;;;;;5.00;100.00;96708.84;5105573;28;20032;-76
2023/03/07 04:51:06;;;;;;;1999.90;999.90;;;;;;;5.01;100.00;96710.44;5078233;28;20388;-75
2023/03/07 04:53:31;;;;;;;1999.90;999.90;;;;;;;4.98;100.00;96708.31;5090070;28;20028;-74
2023/03/07 04:56:01;;;;;;;1999.90;999.90;;;;;;;4.93;100.00;96702.97;5076996;28;20377;-74
2023/03/07 04:58:28;;;;;;;1999.90;999.90;;;;;;;4.90;100.00;96719.81;5070025;28;20028;-74
2023/03/07 05:00:55;;;;;;;1999.90;999.90;;;;;;;4.82;100.00;96721.25;5072944;28;20028;-76
2023/03/07 05:03:22;;;;;;;1999.90;999.90;;;;;;;4.86;100.00;96724.19;5073653;28;20025;-76
2023/03/07 05:05:47;;;;;;;1999.90;999.90;;;;;;;4.88;100.00;96722.03;5073703;28;20127;-74
2023/03/07 05:08:12;;;;;;;1999.90;999.90;;;;;;;4.89;100.00;96715.47;5087130;28;20028;-75
2023/03/07 05:10:38;;;;;;;1999.90;999.90;;;;;;;4.87;100.00;96717.69;5091691;28;20095;-74
2023/03/07 05:13:04;;;;;;;1999.90;999.90;;;;;;;4.91;100.00;96704.38;5093363;28;20118;-75
2023/03/07 05:15:29;;;;;;;1999.90;999.90;;;;;;;4.91;100.00;96713.31;5093544;28;20055;-76
2023/03/07 05:17:55;;;;;;;1999.90;999.90;;;;;;;4.92;100.00;96720.31;5094056;28;20051;-75
2023/03/07 05:20:22;;;;;;;1999.90;999.90;;;;;;;4.88;100.00;96721.22;5096201;28;20059;-74
2023/03/07 05:22:48;;;;;;;1999.90;999.90;;;;;;;4.90;100.00;96727.94;5093634;28;20119;-76
2023/03/07 05:25:13;;;;;;;1999.90;999.90;;;;;;;4.89;100.00;96730.97;5093286;28;20169;-76
2023/03/07 05:27:39;;;;;;;1999.90;999.90;;;;;;;4.89;100.00;96725.53;5093998;28;20034;-80
2023/03/07 05:30:05;;;;;;;1999.90;999.90;;;;;;;4.86;100.00;96729.59;5093952;28;20035;-79
2023/03/07 05:32:31;;;;;;;1999.90;999.90;;;;;;;4.84;100.00;96737.22;5075343;28;20028;-75
2023/03/07 05:34:57;;;;;;;1999.90;999.90;;;;;;;4.74;100.00;96721.09;5080687;28;20036;-81
2023/03/07 05:37:22;;;;;;;1999.90;999.90;;;;;;;4.94;100.00;96731.69;5082938;28;20155;-85
2023/03/07 05:39:48;;;;;;;1999.90;999.90;;;;;;;4.94;100.00;96737.13;5083322;28;20021;-80
2023/03/07 05:42:14;;;;;;;1999.90;999.90;;;;;;;4.88;100.00;96735.56;5079726;28;20468;-82
2023/03/07 05:44:40;;;;;;;1999.90;999.90;;;;;;;4.76;100.00;96719.69;5081513;28;20051;-82
2023/03/07 05:47:05;;;;;;;1999.90;999.90;;;;;;;4.92;100.00;96736.56;5081918;28;20112;-80
2023/03/07 05:49:32;;;;;;;1999.90;999.90;;;;;;;4.88;100.00;96730.16;5084476;28;20036;-80
2023/03/07 05:51:57;;;;;;;1999.90;999.90;;;;;;;4.94;100.00;96736.31;5107514;28;20039;-75
2023/03/07 05:54:23;;;;;;;1999.90;999.90;;;;;;;4.94;100.00;96745.25;5100359;28;20413;-85
2023/03/07 05:56:48;;;;;;;1999.90;999.90;;;;;;;4.94;100.00;96742.53;5105216;28;20031;-85
2023/03/07 05:59:14;;;;;;;1999.90;999.90;;;;;;;4.95;100.00;96741.41;5105819;28;20024;-75
2023/03/07 06:01:40;;;;;;;1999.90;999.90;;;;;;;4.83;100.00;96732.88;5101603;28;20410;-81
2023/03/07 06:04:06;;;;;;;1999.90;999.90;;;;;;;4.86;100.00;96735.03;5103114;28;20039;-83
2023/03/07 06:06:31;;;;;;;1999.90;999.90;;;;;;;4.81;100.00;96735.09;5104176;28;20020;-80
2023/03/07 06:08:57;;;;;;;1999.90;999.90;;;;;;;4.79;100.00;96746.19;5100692;28;20032;-79
2023/03/07 06:11:23;;;;;;;1999.90;999.90;;;;;;;4.78;100.00;96746.50;5092215;28;20067;-75
2023/03/07 06:13:48;;;;;;;1999.90;999.90;;;;;;;4.81;100.00;96745.94;5092477;28;20400;-75
2023/03/07 06:16:13;;;;;;;1999.90;999.90;;;;;;;4.85;100.00;96744.25;5092932;28;20555;-79
2023/03/07 06:18:39;;;;;;;1999.90;999.90;;;;;;;4.87;100.00;96739.34;5096620;28;20115;-86
2023/03/07 06:21:07;;;;;;;1999.90;999.90;;;;;;;4.94;100.00;96750.66;5098669;28;20090;-82
2023/03/07 06:23:35;;;;;;;1999.90;999.90;;;;;;;5.05;100.00;96752.13;5093894;28;20703;-79
2023/03/07 06:26:01;;;;;;;1999.90;999.90;;;;;;;5.10;100.00;96743.97;5092788;28;20147;-82
2023/03/07 06:28:27;;;;;;;1999.90;999.90;;;;;;;5.09;100.00;96742.34;5092515;28;20016;-78
2023/03/07 06:30:53;;;;;;;1999.90;999.90;;;;;;;5.08;100.00;96754.25;5092477;28;20028;-79
2023/03/07 06:33:18;;;;;;;1999.90;999.90;;;;;;;5.12;100.00;96752.59;5092872;28;20066;-82
2023/03/07 06:36:03;;;;;;;1999.90;999.90;;;;;;;4.78;100.00;96714.00;5093792;28;20020;-77
2023/03/07 06:38:28;;;;;;;1999.90;999.90;;;;;;;4.98;100.00;96757.09;5104971;28;20027;-85
2023/03/07 06:40:55;;;;;;;1999.90;999.90;;;;;;;5.03;100.00;96757.06;5086361;28;20028;-88
2023/03/07 06:43:21;;;;;;;1999.90;999.90;;;;;;;5.03;100.00;96765.19;5103203;28;20028;-86
2023/03/07 06:45:46;;;;;;;1999.90;999.90;;;;;;;5.06;100.00;96761.06;5103632;28;20032;-83
2023/03/07 06:48:11;;;;;;;1999.90;999.90;;;;;;;5.17;100.00;96765.28;5102968;28;20031;-84
2023/03/07 06:50:37;;;;;;;1999.90;999.90;;;;;;;5.22;100.00;96768.75;5105161;28;20096;-87
2023/03/07 06:53:02;;;;;;;1999.90;999.90;;;;;;;5.23;100.00;96764.91;5103515;28;20028;-87
2023/03/07 06:55:28;;;;;;;1999.90;999.90;;;;;;;5.35;100.00;96770.75;5103526;28;20032;-86
2023/03/07 06:57:53;;;;;;;1999.90;999.90;;;;;;;5.34;100.00;96766.41;5103881;28;20078;-88
2023/03/07 07:00:19;;;;;;;1999.90;999.90;;;;;;;5.32;100.00;96775.94;5103522;28;20051;-83
2023/03/07 07:02:44;;;;;;;1999.90;999.90;;;;;;;5.37;100.00;96773.16;5103522;28;20115;-85
2023/03/07 07:05:10;;;;;;;1999.90;999.90;;;;;;;5.30;100.00;96784.34;5103313;28;20028;-89
2023/03/07 07:07:35;;;;;;;1999.90;999.90;;;;;;;5.34;100.00;96788.09;5106265;28;20016;-83
2023/03/07 07:10:00;;;;;;;1999.90;999.90;;;;;;;5.26;100.00;96786.00;5106675;28;20052;-91
2023/03/07 07:12:26;;;;;;;1999.90;999.90;;;;;;;5.39;100.00;96788.03;5106142;28;20040;-86
2023/03/07 07:14:51;;;;;;;1999.90;999.90;;;;;;;5.46;100.00;96789.56;5104879;28;20027;-91
2023/03/07 07:17:17;;;;;;;1999.90;999.90;;;;;;;5.48;100.00;96787.38;5104151;28;20084;-86
2023/03/07 07:19:42;;;;;;;1999.90;999.90;;;;;;;5.47;100.00;96793.91;5104611;28;20533;-82
2023/03/07 07:22:10;;;;;;;1999.90;999.90;;;;;;;5.43;100.00;96801.81;5107941;28;20031;-83
2023/03/07 07:24:39;;;;;;;1999.90;999.90;;;;;;;5.45;100.00;96796.88;5104302;28;20032;-80
2023/03/07 07:27:05;;;;;;;1999.90;999.90;;;;;;;5.43;100.00;96792.88;5107531;28;20052;-84
2023/03/07 07:29:31;;;;;;;1999.90;999.90;;;;;;;5.42;100.00;96804.81;5104037;28;20069;-87
2023/03/07 07:31:57;;;;;;;1999.90;999.90;;;;;;;5.27;100.00;96784.13;5099427;28;20042;-83
2023/03/07 07:34:22;;;;;;;1999.90;999.90;;;;;;;5.30;100.00;96795.19;5098647;28;20027;-85
2023/03/07 07:36:48;;;;;;;1999.90;999.90;;;;;;;5.29;100.00;96774.59;5099648;28;20031;-87
2023/03/07 07:39:14;;;;;;;1999.90;999.90;;;;;;;5.25;100.00;96773.56;5101343;28;20063;-86
2023/03/07 07:41:39;;;;;;;1999.90;999.90;;;;;;;5.34;100.00;96761.00;5102330;28;20032;-84
2023/03/07 07:44:07;;;;;;;1999.90;999.90;;;;;;;5.15;100.00;96776.41;5102998;28;20063;-88
2023/03/07 07:46:33;;;;;;;1999.90;999.90;;;;;;;5.37;100.00;96773.97;5100008;28;20042;-86
2023/03/07 07:48:58;;;;;;;1999.90;999.90;;;;;;;5.57;100.00;96785.63;5103235;28;20028;-86
2023/03/07 07:51:24;;;;;;;1999.90;999.90;;;;;;;5.76;100.00;96802.72;5101848;28;20020;-85
2023/03/07 07:53:49;;;;;;;1999.90;999.90;;;;;;;5.80;100.00;96796.41;5101459;28;20028;-87
2023/03/07 07:56:14;;;;;;;1999.90;999.90;;;;;;;6.02;100.00;96804.00;5101310;28;20035;-84
2023/03/07 07:58:40;;;;;;;1999.90;999.90;;;;;;;6.01;100.00;96807.81;5103177;28;20028;-85
2023/03/07 08:01:16;;;;;;;1999.90;999.90;;;;;;;5.85;100.00;96806.41;5096631;28;20031;-86
2023/03/07 08:03:42;;;;;;;1999.90;999.90;;;;;;;5.93;100.00;96798.44;5096167;28;20047;-84
2023/03/07 08:06:08;;;;;;;1999.90;999.90;;;;;;;5.83;100.00;96789.59;5096030;28;20043;-84
2023/03/07 08:08:33;;;;;;;1999.90;999.90;;;;;;;5.91;100.00;96794.41;5098928;28;20050;-89
2023/03/07 08:10:58;;;;;;;1999.90;999.90;;;;;;;6.17;100.00;96798.31;5102744;28;20051;-86
2023/03/07 08:13:24;;;;;;;1999.90;999.90;;;;;;;6.41;100.00;96809.91;5103461;28;20047;-84
2023/03/07 08:15:49;;;;;;;1999.90;999.90;;;;;;;6.46;100.00;96804.38;5065549;28;20077;-84
2023/03/07 08:18:15;;;;;;;1999.90;999.90;;;;;;;6.29;100.00;96809.56;5097150;28;20465;-80
2023/03/07 08:20:40;;;;;;;1999.90;999.90;;;;;;;6.28;100.00;96810.66;5097578;28;20038;-84
2023/03/07 08:23:06;;;;;;;1999.90;999.90;;;;;;;6.19;100.00;96798.84;5098202;28;20077;-86
2023/03/07 08:25:32;;;;;;;1999.90;999.90;;;;;;;6.22;100.00;96794.72;5099190;28;20084;-83
2023/03/07 08:27:58;;;;;;;1999.90;999.90;;;;;;;6.38;100.00;96807.78;5099316;28;20055;-83
2023/03/07 08:30:26;;;;;;;1999.90;999.90;;;;;;;6.20;100.00;96799.66;5099448;28;20032;-89
2023/03/07 08:32:52;;;;;;;1999.90;999.90;;;;;;;6.44;100.00;96795.72;5098559;28;20468;-83
2023/03/07 08:35:18;;;;;;;1999.90;999.90;;;;;;;6.48;100.00;96814.94;5103292;28;20020;-84
2023/03/07 08:37:44;;;;;;;1999.90;999.90;;;;;;;6.47;100.00;96806.00;5105943;28;20023;-89
2023/03/07 08:40:10;;;;;;;1999.90;999.90;;;;;;;6.60;100.00;96809.84;5105215;28;20028;-88
2023/03/07 08:42:36;;;;;;;1999.90;999.90;;;;;;;6.63;100.00;96809.25;5103869;28;20059;-89
2023/03/07 08:45:01;;;;;;;1999.90;999.90;;;;;;;6.56;100.00;96800.69;5101299;28;20024;-83
2023/03/07 08:47:27;;;;;;;1999.90;999.90;;;;;;;6.69;100.00;96801.81;5101275;28;20020;-82
2023/03/07 08:49:52;;;;;;;1999.90;999.90;;;;;;;6.76;100.00;96796.81;5112681;28;20042;-79
2023/03/07 08:52:17;;;;;;;1999.90;999.90;;;;;;;6.74;100.00;96799.00;5113303;28;20369;-85
2023/03/07 08:54:43;;;;;;;1999.90;999.90;;;;;;;6.71;100.00;96815.91;5106027;28;20039;-88
2023/03/07 08:57:08;;;;;;;1999.90;999.90;;;;;;;6.69;100.00;96807.25;5103812;28;20027;-86
2023/03/07 08:59:34;;;;;;;1999.90;999.90;;;;;;;6.63;100.00;96808.44;5102761;28;20027;-84
2023/03/07 09:01:59;;;;;;;1999.90;999.90;;;;;;;6.75;100.00;96808.78;5088748;28;20040;-86
2023/03/07 09:04:24;;;;;;;1999.90;999.90;;;;;;;6.80;100.00;96801.31;5108954;28;20035;-87
2023/03/07 09:06:50;;;;;;;1999.90;999.90;;;;;;;6.89;100.00;96804.19;5107496;28;20024;-86
2023/03/07 09:09:15;;;;;;;1999.90;999.90;;;;;;;6.96;100.00;96796.41;5109845;28;20032;-88
2023/03/07 09:11:41;;;;;;;1999.90;999.90;;;;;;;6.94;100.00;96804.06;5110865;28;20400;-82
2023/03/07 09:14:07;;;;;;;1999.90;999.90;;;;;;;7.01;100.00;96807.22;5107397;28;20028;-87
2023/03/07 09:16:33;;;;;;;1999.90;999.90;;;;;;;6.86;100.00;96805.56;5107560;28;20078;-87
2023/03/07 09:18:58;;;;;;;1999.90;999.90;;;;;;;6.84;100.00;96798.81;5108497;28;20030;-85
2023/03/07 09:21:23;;;;;;;1999.90;999.90;;;;;;;6.83;100.00;96803.44;5108424;28;20012;-82
2023/03/07 09:23:49;;;;;;;1999.90;999.90;;;;;;;6.79;100.00;96786.16;5109101;28;20104;-86
2023/03/07 09:26:14;;;;;;;1999.90;999.90;;;;;;;6.65;100.00;96779.06;5106004;28;20024;-83
2023/03/07 09:28:40;;;;;;;1999.90;999.90;;;;;;;6.73;100.00;96786.53;5103338;28;20034;-87
2023/03/07 09:31:11;;;;;;;1999.90;999.90;;;;;;;6.75;100.00;96781.59;5103329;28;20032;-85
2023/03/07 09:33:37;;;;;;;1999.90;999.90;;;;;;;6.99;100.00;96788.47;5101153;28;20019;-85
2023/03/07 09:36:08;;;;;;;1999.90;999.90;;;;;;;7.16;100.00;96779.72;5101655;28;20095;-82
2023/03/07 09:38:33;;;;;;;1999.90;999.90;;;;;;;7.33;100.00;96790.78;5102716;28;20069;-84
2023/03/07 09:41:20;;;;;;;1999.90;999.90;;;;;;;7.34;100.00;96792.41;5101258;28;20024;-86
2023/03/07 09:44:23;;;;;;;1999.90;999.90;;;;;;;7.43;100.00;96785.13;5100595;28;20028;-86
2023/03/07 09:47:15;;;;;;;1999.90;999.90;;;;;;;7.29;100.00;96787.06;5099978;28;20035;-89
2023/03/07 09:49:49;;;;;;;1999.90;999.90;;;;;;;7.22;100.00;96786.66;5098154;28;20039;-82
2023/03/07 09:52:36;;;;;;;1999.90;999.90;;;;;;;7.33;100.00;96779.91;5100745;28;20028;-88
2023/03/07 09:55:19;;;;;;;1999.90;999.90;;;;;;;7.55;100.00;96771.00;5102584;28;20062;-84
2023/03/07 09:57:55;;;;;;;1999.90;999.90;;;;;;;7.46;100.00;96779.09;5101840;28;20035;-89
2023/03/07 10:00:28;;;;;;;1999.90;999.90;;;;;;;7.60;100.00;96768.19;5102750;28;20031;-87
2023/03/07 10:03:23;;;;;;;1999.90;999.90;;;;;;;7.26;100.00;96782.25;5103908;28;20024;-88
2023/03/07 10:05:52;;;;;;;1999.90;999.90;;;;;;;7.96;100.00;96773.63;5097817;28;20108;-89
2023/03/07 10:08:25;;;;;;;1999.90;999.90;;;;;;;8.42;100.00;96778.84;5101592;28;20028;-86
2023/03/07 10:11:13;;;;;;;1999.90;999.90;;;;;;;8.95;100.00;96781.56;5103863;28;20080;-83
2023/03/07 10:13:47;;;;;;;1999.90;999.90;;;;;;;9.30;100.00;96790.69;5106444;28;20052;-87
2023/03/07 10:16:24;;;;;;;1999.90;999.90;;;;;;;8.75;100.00;96782.06;5103223;28;20532;-86
2023/03/07 10:18:55;;;;;;;1999.90;999.90;;;;;;;8.37;100.00;96771.59;5105571;28;20111;-86
2023/03/07 10:21:31;;;;;;;1999.90;999.90;;;;;;;8.67;100.00;96752.84;5107885;28;20079;-87
2023/03/07 10:24:10;;;;;;;1999.90;999.90;;;;;;;8.68;100.00;96773.56;5102547;28;20032;-85
2023/03/07 10:27:06;;;;;;;1999.90;999.90;;;;;;;8.21;100.00;96766.78;5098461;28;20028;-85
2023/03/07 10:29:45;;;;;;;1999.90;999.90;;;;;;;7.96;100.00;96770.91;5099391;28;20054;-84
2023/03/07 10:32:21;;;;;;;1999.90;999.90;;;;;;;7.80;100.00;96777.84;5099974;28;20489;-88
2023/03/07 10:35:00;;;;;;;1999.90;999.90;;;;;;;7.69;100.00;96765.56;5098115;28;20062;-85
2023/03/07 10:37:39;;;;;;;1999.90;999.90;;;;;;;7.61;100.00;96763.56;5103553;28;20047;-83
2023/03/07 10:40:05;;;;;;;1999.90;999.90;;;;;;;7.51;100.00;96754.50;5106286;28;20035;-87
2023/03/07 10:42:35;;;;;;;1999.90;999.90;;;;;;;7.52;100.00;96767.00;5104446;28;20020;-88
2023/03/07 10:45:01;;;;;;;1999.90;999.90;;;;;;;7.57;100.00;96754.38;5108735;28;20043;-88
2023/03/07 10:47:28;;;;;;;1999.90;999.90;;;;;;;7.64;100.00;96757.50;5104368;28;20496;-89
2023/03/07 10:50:01;;;;;;;1999.90;999.90;;;;;;;8.07;100.00;96761.41;5105356;28;20441;-85
2023/03/07 10:52:46;;;;;;;1999.90;999.90;;;;;;;8.36;100.00;96750.94;5098619;28;20063;-83
2023/03/07 10:55:38;;;;;;;1999.90;999.90;;;;;;;8.45;100.00;96749.06;5100090;28;20104;-85
2023/03/07 10:58:18;;;;;;;1999.90;999.90;;;;;;;8.32;100.00;96757.28;5101920;28;20117;-86